Time;durP1;ratioP1;P1;durP2;ratioP2;P2;SDS_P1;SDS_P2;PMS_P1;PMS_P2;Temp;Humidity;BMP_temperature;BMP_pressure;BME280_temperature;BME280_humidity;BME280_pressure;Samples;Min_cycle;Max_cycle;Signal;HPM_P1;HPM_P2
2022/07/10 00:01:28;;;;;;;;;;;;;;;17.74;63.54;97154.94;5075719;28;20380;-70
2022/07/10 00:03:54;;;;;;;;;;;;;;;17.71;63.31;97142.19;5075659;28;19996;-70
2022/07/10 00:06:20;;;;;;;;;;;;;;;17.67;63.64;97147.16;5075736;28;19979;-70
2022/07/10 00:08:46;;;;;;;;;;;;;;;17.64;63.93;97145.03;5075687;28;19969;-71
2022/07/10 00:11:12;;;;;;;;;;;;;;;17.60;64.01;97154.50;5075786;28;19972;-70
2022/07/10 00:13:38;;;;;;;;;;;;;;;17.55;64.04;97141.97;5075484;28;20016;-71
2022/07/10 00:16:04;;;;;;;;;;;;;;;17.53;63.84;97146.72;5075639;28;19959;-71
2022/07/10 00:18:30;;;;;;;;;;;;;;;17.52;64.00;97146.97;5075335;28;19964;-70
2022/07/10 00:20:56;;;;;;;;;;;;;;;17.49;64.44;97148.28;5075422;28;20019;-70
2022/07/10 00:23:22;;;;;;;;;;;;;;;17.47;64.92;97139.75;5075344;28;19959;-71
2022/07/10 00:25:48;;;;;;;;;;;;;;;17.45;64.61;97149.81;5075495;28;19965;-71
2022/07/10 00:28:14;;;;;;;;;;;;;;;17.42;64.66;97144.97;5073877;28;20082;-71
2022/07/10 00:30:40;;;;;;;;;;;;;;;17.42;64.73;97137.81;5075808;28;19984;-71
2022/07/10 00:33:06;;;;;;;;;;;;;;;17.42;64.96;97142.31;5075300;28;20419;-71
2022/07/10 00:35:32;;;;;;;;;;;;;;;17.41;65.04;97143.38;5075462;28;19970;-71
2022/07/10 00:37:57;;;;;;;;;;;;;;;17.41;65.09;97146.03;5075041;28;19959;-72
2022/07/10 00:40:23;;;;;;;;;;;;;;;17.40;65.30;97139.91;5074877;28;19963;-71
2022/07/10 00:42:49;;;;;;;;;;;;;;;17.41;65.00;97136.22;5074822;28;19959;-71
2022/07/10 00:45:15;;;;;;;;;;;;;;;17.41;65.12;97138.09;5075093;28;19960;-71
2022/07/10 00:47:41;;;;;;;;;;;;;;;17.38;65.17;97136.69;5074927;28;19957;-71
2022/07/10 00:50:08;;;;;;;;;;;;;;;17.38;65.18;97130.59;5074578;28;19966;-71
2022/07/10 00:52:38;;;;;;;;;;;;;;;17.37;65.24;97132.47;5074714;28;19955;-71
2022/07/10 00:55:05;;;;;;;;;;;;;;;17.36;65.44;97132.69;5074971;28;19963;-71
2022/07/10 00:57:31;;;;;;;;;;;;;;;17.35;65.44;97134.56;5074764;28;19974;-70
2022/07/10 00:59:58;;;;;;;;;;;;;;;17.34;65.20;97124.97;5075019;28;19961;-71
2022/07/10 01:02:23;;;;;;;;;;;;;;;17.33;65.55;97120.75;5074672;28;19978;-71
2022/07/10 01:04:49;;;;;;;;;;;;;;;17.33;65.48;97126.03;5074681;28;20340;-71
2022/07/10 01:07:15;;;;;;;;;;;;;;;17.33;65.59;97114.63;5074546;28;19961;-71
2022/07/10 01:09:41;;;;;;;;;;;;;;;17.32;65.53;97113.81;5074452;28;20382;-71
2022/07/10 01:12:08;;;;;;;;;;;;;;;17.29;65.57;97102.91;5074219;28;19982;-71
2022/07/10 01:14:35;;;;;;;;;;;;;;;17.27;66.02;97105.00;5074214;28;20396;-71
2022/07/10 01:17:01;;;;;;;;;;;;;;;17.25;65.86;97106.03;5074578;28;19959;-71
2022/07/10 01:19:27;;;;;;;;;;;;;;;17.24;65.89;97093.06;5074222;28;20029;-71
2022/07/10 01:21:53;;;;;;;;;;;;;;;17.21;66.30;97091.66;5073079;28;20411;-71
2022/07/10 01:24:19;;;;;;;;;;;;;;;17.19;66.12;97090.31;5074267;28;19961;-71
2022/07/10 01:26:45;;;;;;;;;;;;;;;17.16;66.13;97096.91;5074180;28;19987;-71
2022/07/10 01:29:11;;;;;;;;;;;;;;;17.14;66.38;97096.34;5073782;28;20322;-71
2022/07/10 01:31:37;;;;;;;;;;;;;;;17.11;66.15;97094.16;5072839;28;19980;-70
2022/07/10 01:34:05;;;;;;;;;;;;;;;17.11;66.06;97099.47;5074037;28;19960;-71
2022/07/10 01:36:31;;;;;;;;;;;;;;;17.11;66.67;97096.03;5073877;28;19966;-70
2022/07/10 01:38:58;;;;;;;;;;;;;;;17.10;66.86;97094.44;5074007;28;19969;-71
2022/07/10 01:41:24;;;;;;;;;;;;;;;17.07;66.23;97098.34;5065186;28;19962;-71
2022/07/10 01:43:51;;;;;;;;;;;;;;;17.04;66.66;97102.31;5073784;28;19974;-71
2022/07/10 01:46:17;;;;;;;;;;;;;;;17.00;66.45;97098.53;5073034;28;19967;-71
2022/07/10 01:48:43;;;;;;;;;;;;;;;16.97;66.86;97099.03;5073840;28;19965;-71
2022/07/10 01:51:10;;;;;;;;;;;;;;;16.94;67.10;97090.75;5073951;28;20424;-71
2022/07/10 01:53:36;;;;;;;;;;;;;;;16.92;67.05;97098.94;5073798;28;19966;-71
2022/07/10 01:56:03;;;;;;;;;;;;;;;16.90;67.03;97100.22;5073614;28;20324;-71
2022/07/10 01:58:30;;;;;;;;;;;;;;;16.87;67.07;97093.56;5073879;28;19961;-71
2022/07/10 02:00:56;;;;;;;;;;;;;;;16.84;67.31;97094.88;5073613;28;19964;-71
2022/07/10 02:06:11;;;;;;;;;;;;;;;16.81;67.36;97092.69;5054433;28;19965;-71
2022/07/10 02:08:37;;;;;;;;;;;;;;;16.80;67.44;97101.69;5074076;28;19966;-71
2022/07/10 02:11:02;;;;;;;;;;;;;;;16.78;67.33;97100.31;5072446;28;20012;-71
2022/07/10 02:13:28;;;;;;;;;;;;;;;16.77;67.67;97102.13;5073598;28;19987;-71
2022/07/10 02:15:54;;;;;;;;;;;;;;;16.76;67.15;97091.78;5073394;28;20391;-71
2022/07/10 02:18:20;;;;;;;;;;;;;;;16.74;67.72;97096.53;5073567;28;19979;-71
2022/07/10 02:20:46;;;;;;;;;;;;;;;16.72;67.61;97095.97;5073484;28;20379;-70
2022/07/10 02:23:12;;;;;;;;;;;;;;;16.70;67.82;97095.41;5073347;28;20041;-70
2022/07/10 02:25:38;;;;;;;;;;;;;;;16.67;67.98;97091.38;5072515;28;20411;-70
2022/07/10 02:28:04;;;;;;;;;;;;;;;16.63;67.78;97096.38;5073207;28;19966;-72
2022/07/10 02:30:30;;;;;;;;;;;;;;;16.61;68.23;97101.09;5073476;28;19966;-72
2022/07/10 02:32:56;;;;;;;;;;;;;;;16.59;68.37;97111.13;5073334;28;19954;-72
2022/07/10 02:35:22;;;;;;;;;;;;;;;16.56;68.94;97102.84;5073716;28;20467;-72
2022/07/10 02:37:48;;;;;;;;;;;;;;;16.53;68.68;97101.47;5073143;28;19971;-72
2022/07/10 02:40:14;;;;;;;;;;;;;;;16.51;68.77;97100.13;5073359;28;19960;-72
2022/07/10 02:42:40;;;;;;;;;;;;;;;16.48;68.65;97100.59;5073402;28;19969;-72
2022/07/10 02:45:07;;;;;;;;;;;;;;;16.39;68.92;97105.47;5073368;28;20416;-72
2022/07/10 02:47:33;;;;;;;;;;;;;;;16.28;71.93;97096.56;5073024;28;19958;-72
2022/07/10 02:49:58;;;;;;;;;;;;;;;16.15;70.74;97099.50;5073283;28;20014;-71
2022/07/10 02:52:24;;;;;;;;;;;;;;;16.04;71.42;97095.84;5072969;28;20018;-71
2022/07/10 02:54:51;;;;;;;;;;;;;;;16.00;71.68;97097.38;5073193;28;19990;-71
2022/07/10 02:57:17;;;;;;;;;;;;;;;15.97;72.62;97103.13;5073137;28;19966;-72
2022/07/10 02:59:43;;;;;;;;;;;;;;;15.91;72.51;97099.59;5073117;28;19973;-72
2022/07/10 03:02:08;;;;;;;;;;;;;;;15.90;72.94;97099.84;5073097;28;20035;-72
2022/07/10 03:04:34;;;;;;;;;;;;;;;15.87;73.98;97106.38;5073003;28;19966;-72
2022/07/10 03:07:00;;;;;;;;;;;;;;;15.83;73.34;97098.13;5073129;28;20419;-71
2022/07/10 03:09:27;;;;;;;;;;;;;;;15.75;73.72;97093.22;5072930;28;19965;-72
2022/07/10 03:11:52;;;;;;;;;;;;;;;15.68;75.88;97097.78;5072693;28;19968;-71
2022/07/10 03:14:18;;;;;;;;;;;;;;;15.65;75.22;97097.47;5074950;28;20051;-71
2022/07/10 03:16:44;;;;;;;;;;;;;;;15.62;74.34;97093.44;5076512;28;19983;-72
2022/07/10 03:19:10;;;;;;;;;;;;;;;15.54;74.63;97093.78;5076865;28;19961;-71
2022/07/10 03:21:36;;;;;;;;;;;;;;;15.52;74.21;97085.31;5076517;28;20015;-72
2022/07/10 03:24:02;;;;;;;;;;;;;;;15.53;73.87;97086.91;5076781;28;19960;-72
2022/07/10 03:26:29;;;;;;;;;;;;;;;15.57;74.93;97093.34;5076446;28;20014;-72
2022/07/10 03:28:55;;;;;;;;;;;;;;;15.59;75.64;97091.25;5076510;28;19989;-71
2022/07/10 03:31:21;;;;;;;;;;;;;;;15.52;75.63;97094.03;5076243;28;19988;-71
2022/07/10 03:33:47;;;;;;;;;;;;;;;15.49;75.11;97093.69;5076150;28;19965;-72
2022/07/10 03:36:13;;;;;;;;;;;;;;;15.47;74.93;97098.41;5076707;28;19955;-71
2022/07/10 03:38:39;;;;;;;;;;;;;;;15.45;75.31;97101.28;5076395;28;20427;-72
2022/07/10 03:41:05;;;;;;;;;;;;;;;15.42;76.39;97096.47;5076331;28;19956;-71
2022/07/10 03:43:31;;;;;;;;;;;;;;;15.42;72.92;97094.63;5076115;28;20014;-71
2022/07/10 03:45:57;;;;;;;;;;;;;;;15.40;75.44;97101.97;5076218;28;19961;-72
2022/07/10 03:48:23;;;;;;;;;;;;;;;15.37;75.96;97099.81;5075913;28;19961;-71
2022/07/10 03:50:50;;;;;;;;;;;;;;;15.33;75.58;97096.03;5076025;28;20009;-72
2022/07/10 03:53:16;;;;;;;;;;;;;;;15.31;75.27;97098.09;5076158;28;19959;-72
2022/07/10 03:55:42;;;;;;;;;;;;;;;15.26;75.87;97103.25;5075937;28;19958;-72
2022/07/10 03:58:08;;;;;;;;;;;;;;;15.26;75.71;97099.81;5075866;28;20021;-71
2022/07/10 04:00:37;;;;;;;;;;;;;;;15.22;76.39;97091.53;5075991;28;19971;-72
2022/07/10 04:03:03;;;;;;;;;;;;;;;15.22;76.39;97099.47;5075855;28;19965;-71
2022/07/10 04:05:29;;;;;;;;;;;;;;;15.21;76.60;97093.38;5075781;28;19951;-72
2022/07/10 04:07:56;;;;;;;;;;;;;;;15.20;77.53;97096.25;5075762;28;20345;-72
2022/07/10 04:10:23;;;;;;;;;;;;;;;15.23;76.21;97093.97;5075978;28;19962;-72
2022/07/10 04:12:49;;;;;;;;;;;;;;;15.25;78.04;97087.66;5075541;28;19975;-72
2022/07/10 04:15:15;;;;;;;;;;;;;;;15.27;77.49;97091.66;5075365;28;19959;-72
2022/07/10 04:17:41;;;;;;;;;;;;;;;15.28;77.66;97089.81;5076208;28;19959;-71
2022/07/10 04:20:07;;;;;;;;;;;;;;;15.28;77.48;97089.81;5075475;28;20396;-72
2022/07/10 04:22:33;;;;;;;;;;;;;;;15.27;74.30;97078.47;5075637;28;20031;-71
2022/07/10 04:24:59;;;;;;;;;;;;;;;15.27;75.88;97080.31;5074363;28;19966;-72
2022/07/10 04:27:25;;;;;;;;;;;;;;;15.22;76.61;97097.66;5075249;28;19956;-72
2022/07/10 04:29:51;;;;;;;;;;;;;;;15.20;76.31;97083.88;5075105;28;20336;-72
2022/07/10 04:32:17;;;;;;;;;;;;;;;15.19;77.49;97097.31;5075720;28;19982;-72
2022/07/10 04:34:43;;;;;;;;;;;;;;;15.18;75.57;97103.59;5075038;28;19963;-71
2022/07/10 04:37:09;;;;;;;;;;;;;;;15.17;77.96;97105.44;5075144;28;19962;-72
2022/07/10 04:39:37;;;;;;;;;;;;;;;15.15;77.56;97104.88;5075167;28;19972;-72
2022/07/10 04:42:03;;;;;;;;;;;;;;;15.15;78.92;97106.72;5075058;28;20330;-72
2022/07/10 04:44:29;;;;;;;;;;;;;;;15.11;75.69;97105.56;5075114;28;19958;-71
2022/07/10 04:46:55;;;;;;;;;;;;;;;15.08;77.05;97108.69;5074946;28;19963;-71
2022/07/10 04:49:21;;;;;;;;;;;;;;;15.05;79.32;97106.50;5074736;28;19960;-72
2022/07/10 04:51:47;;;;;;;;;;;;;;;15.03;77.73;97109.34;5074068;28;19974;-72
2022/07/10 04:54:13;;;;;;;;;;;;;;;15.03;77.25;97109.34;5073729;28;20028;-72
2022/07/10 04:56:39;;;;;;;;;;;;;;;15.02;76.58;97105.13;5074725;28;19967;-72
2022/07/10 04:59:05;;;;;;;;;;;;;;;15.02;78.80;97119.13;5075045;28;19965;-72
2022/07/10 05:01:30;;;;;;;;;;;;;;;15.01;76.28;97109.59;5074485;28;19996;-72
2022/07/10 05:03:56;;;;;;;;;;;;;;;15.00;76.93;97105.34;5074688;28;19964;-71
2022/07/10 05:06:22;;;;;;;;;;;;;;;14.98;78.38;97111.91;5074477;28;19958;-71
2022/07/10 05:08:54;;;;;;;;;;;;;;;15.02;78.05;97115.69;5074522;28;19958;-71
2022/07/10 05:11:20;;;;;;;;;;;;;;;15.04;77.71;97108.34;5074309;28;20336;-72
2022/07/10 05:13:48;;;;;;;;;;;;;;;15.05;75.61;97107.28;5074582;28;19962;-72
2022/07/10 05:16:14;;;;;;;;;;;;;;;15.08;76.46;97116.63;5074372;28;20319;-72
2022/07/10 05:18:40;;;;;;;;;;;;;;;15.09;75.66;97121.66;5074885;28;19956;-72
2022/07/10 05:21:06;;;;;;;;;;;;;;;15.12;76.07;97123.03;5074199;28;20020;-71
2022/07/10 05:23:32;;;;;;;;;;;;;;;15.13;76.15;97114.06;5074363;28;19959;-72
2022/07/10 05:25:58;;;;;;;;;;;;;;;15.10;75.46;97122.44;5074418;28;19961;-72
2022/07/10 05:28:24;;;;;;;;;;;;;;;15.09;75.85;97136.72;5074086;28;19982;-72
2022/07/10 05:30:50;;;;;;;;;;;;;;;15.07;75.78;97136.13;5074567;28;20013;-71
2022/07/10 05:33:16;;;;;;;;;;;;;;;15.04;75.40;97134.75;5073834;28;20349;-71
2022/07/10 05:35:42;;;;;;;;;;;;;;;15.02;75.11;97136.81;5074102;28;19988;-72
2022/07/10 05:38:08;;;;;;;;;;;;;;;15.03;75.89;97133.13;5073758;28;20415;-72
2022/07/10 05:40:34;;;;;;;;;;;;;;;15.07;75.78;97136.91;5073924;28;20002;-72
2022/07/10 05:43:00;;;;;;;;;;;;;;;15.09;75.29;97140.16;5072862;28;19994;-72
2022/07/10 05:45:26;;;;;;;;;;;;;;;15.13;75.79;97141.28;5074188;28;19965;-72
2022/07/10 05:47:52;;;;;;;;;;;;;;;15.17;75.12;97145.09;5073763;28;19967;-71
2022/07/10 05:50:18;;;;;;;;;;;;;;;15.21;75.40;97142.78;5074128;28;19962;-71
2022/07/10 05:52:44;;;;;;;;;;;;;;;15.20;74.87;97141.16;5073849;28;19967;-72
2022/07/10 05:55:10;;;;;;;;;;;;;;;15.20;75.33;97143.81;5073579;28;20341;-72
2022/07/10 05:57:36;;;;;;;;;;;;;;;15.22;74.27;97152.31;5072595;28;19962;-72
2022/07/10 06:00:03;;;;;;;;;;;;;;;15.20;74.66;97154.38;5073852;28;19971;-72
2022/07/10 06:02:29;;;;;;;;;;;;;;;15.19;74.23;97145.66;5073900;28;19955;-71
2022/07/10 06:04:55;;;;;;;;;;;;;;;15.17;74.34;97150.38;5073840;28;20416;-71
2022/07/10 06:07:21;;;;;;;;;;;;;;;15.18;74.80;97159.09;5073631;28;20369;-71
2022/07/10 06:09:47;;;;;;;;;;;;;;;15.20;73.43;97155.22;5073844;28;19962;-72
2022/07/10 06:12:14;;;;;;;;;;;;;;;15.19;73.48;97145.66;5073380;28;20003;-71
2022/07/10 06:14:40;;;;;;;;;;;;;;;15.22;74.22;97155.78;5073759;28;19963;-71
2022/07/10 06:17:06;;;;;;;;;;;;;;;15.26;73.22;97150.03;5072426;28;19958;-71
2022/07/10 06:19:32;;;;;;;;;;;;;;;15.30;72.95;97151.97;5072451;28;19959;-72
2022/07/10 06:24:42;;;;;;;;;;;;;;;15.44;72.48;97152.56;5072605;28;19977;-72
2022/07/10 06:27:08;;;;;;;;;;;;;;;15.52;72.07;97152.19;5073160;28;19962;-72
2022/07/10 06:29:34;;;;;;;;;;;;;;;15.55;71.30;97159.66;5073438;28;20066;-72
2022/07/10 06:32:00;;;;;;;;;;;;;;;15.55;71.27;97153.56;5073314;28;20017;-72
2022/07/10 06:34:25;;;;;;;;;;;;;;;15.56;71.47;97160.47;5073349;28;20374;-72
2022/07/10 06:36:51;;;;;;;;;;;;;;;15.61;71.56;97160.59;5063077;28;19964;-72
2022/07/10 06:39:17;;;;;;;;;;;;;;;15.67;71.42;97164.94;5073166;28;19966;-71
2022/07/10 06:41:43;;;;;;;;;;;;;;;15.71;70.97;97158.16;5073668;28;19958;-71
2022/07/10 06:44:09;;;;;;;;;;;;;;;15.73;71.06;97157.97;5073222;28;19954;-72
2022/07/10 06:46:35;;;;;;;;;;;;;;;15.77;71.41;97165.19;5073619;28;19964;-72
2022/07/10 06:49:01;;;;;;;;;;;;;;;15.82;70.89;97167.13;5074616;28;20006;-72
2022/07/10 06:51:27;;;;;;;;;;;;;;;15.87;70.01;97154.00;5077267;28;19990;-72
2022/07/10 06:53:52;;;;;;;;;;;;;;;16.03;70.18;97170.97;5077048;28;20408;-71
2022/07/10 06:56:18;;;;;;;;;;;;;;;16.10;69.94;97173.50;5077162;28;19967;-72
2022/07/10 06:58:44;;;;;;;;;;;;;;;16.14;69.14;97170.13;5077493;28;19963;-72
2022/07/10 07:01:10;;;;;;;;;;;;;;;16.17;68.17;97164.38;5077122;28;20042;-71
2022/07/10 07:03:36;;;;;;;;;;;;;;;16.16;68.15;97161.97;5076853;28;19962;-71
2022/07/10 07:06:02;;;;;;;;;;;;;;;16.14;67.73;97169.34;5077068;28;20016;-72
2022/07/10 07:08:29;;;;;;;;;;;;;;;16.11;67.61;97170.63;5076899;28;19962;-72
2022/07/10 07:10:55;;;;;;;;;;;;;;;16.06;67.91;97181.09;5060590;28;19963;-72
2022/07/10 07:13:21;;;;;;;;;;;;;;;16.04;66.87;97180.50;5076872;28;20434;-71
2022/07/10 07:15:57;;;;;;;;;;;;;;;15.99;66.34;97178.56;5076666;28;19990;-72
2022/07/10 07:18:31;;;;;;;;;;;;;;;15.99;67.27;97183.88;5076677;28;19965;-72
2022/07/10 07:23:42;;;;;;;;;;;;;;;16.21;66.98;97185.88;5076489;28;19966;-71
2022/07/10 07:26:08;;;;;;;;;;;;;;;16.33;67.43;97185.84;5076299;28;19963;-72
2022/07/10 07:28:34;;;;;;;;;;;;;;;16.36;67.56;97188.81;5076771;28;20387;-72
2022/07/10 07:31:29;;;;;;;;;;;;;;;16.37;66.26;97182.47;5054271;28;19978;-71
2022/07/10 07:33:58;;;;;;;;;;;;;;;16.43;66.26;97168.28;5058534;28;19970;-72
2022/07/10 07:36:23;;;;;;;;;;;;;;;16.56;63.72;97153.16;5076270;28;20057;-71
2022/07/10 07:38:49;;;;;;;;;;;;;;;16.67;65.64;97172.66;5076503;28;20364;-71
2022/07/10 07:41:15;;;;;;;;;;;;;;;16.83;64.03;97162.13;5076218;28;19957;-72
2022/07/10 07:43:41;;;;;;;;;;;;;;;17.07;63.92;97164.59;5076513;28;19977;-72
2022/07/10 07:46:07;;;;;;;;;;;;;;;17.60;62.63;97147.34;5076212;28;20003;-72
2022/07/10 07:48:33;;;;;;;;;;;;;;;18.15;63.19;97144.84;5076856;28;19968;-72
2022/07/10 07:50:58;;;;;;;;;;;;;;;18.21;60.17;97123.41;5075844;28;19995;-71
2022/07/10 07:53:24;;;;;;;;;;;;;;;18.28;60.84;97127.72;5075946;28;19975;-71
2022/07/10 07:55:50;;;;;;;;;;;;;;;18.46;59.46;97106.13;5075922;28;19966;-72
2022/07/10 07:58:16;;;;;;;;;;;;;;;18.77;59.04;97099.22;5076153;28;20023;-72
2022/07/10 08:00:42;;;;;;;;;;;;;;;19.10;61.16;97123.13;5075670;28;19967;-71
2022/07/10 08:03:08;;;;;;;;;;;;;;;19.38;57.90;97084.72;5076220;28;20002;-72
2022/07/10 08:05:34;;;;;;;;;;;;;;;19.64;56.01;97083.78;5075598;28;20360;-72
2022/07/10 08:08:04;;;;;;;;;;;;;;;19.84;58.66;97098.25;5075928;28;19962;-72
2022/07/10 08:10:30;;;;;;;;;;;;;;;19.99;54.83;97070.88;5075699;28;19967;-72
2022/07/10 08:12:56;;;;;;;;;;;;;;;20.17;52.50;97042.94;5075391;28;19988;-72
2022/07/10 08:15:22;;;;;;;;;;;;;;;20.17;54.37;97058.94;5075718;28;19961;-72
2022/07/10 08:17:49;;;;;;;;;;;;;;;20.24;55.13;97070.94;5075484;28;19960;-72
2022/07/10 08:20:15;;;;;;;;;;;;;;;20.08;54.85;97069.31;5075638;28;19965;-72
2022/07/10 08:22:41;;;;;;;;;;;;;;;20.05;54.63;97062.66;5075223;28;19967;-72
2022/07/10 08:25:08;;;;;;;;;;;;;;;20.24;51.93;97024.84;5075407;28;19970;-72
2022/07/10 08:27:34;;;;;;;;;;;;;;;20.28;52.18;97033.91;5075576;28;20318;-72
2022/07/10 08:30:00;;;;;;;;;;;;;;;20.16;54.01;97054.66;5074985;28;19989;-72
2022/07/10 08:32:27;;;;;;;;;;;;;;;20.20;53.09;97045.06;5075201;28;19980;-72
2022/07/10 08:34:53;;;;;;;;;;;;;;;20.39;54.03;97046.16;5075371;28;20001;-71
2022/07/10 08:37:22;;;;;;;;;;;;;;;20.38;51.67;97028.56;5075048;28;19959;-72
2022/07/10 08:39:48;;;;;;;;;;;;;;;20.21;51.79;97041.34;5075222;28;19967;-72
2022/07/10 08:42:15;;;;;;;;;;;;;;;19.93;51.95;97053.28;5075163;28;20059;-72
2022/07/10 08:44:41;;;;;;;;;;;;;;;19.70;53.33;97057.19;5074985;28;20051;-72
2022/07/10 08:47:07;;;;;;;;;;;;;;;19.72;54.75;97063.06;5074762;28;19953;-72
2022/07/10 08:49:35;;;;;;;;;;;;;;;19.84;53.36;97067.13;5074960;28;19959;-71
2022/07/10 08:52:01;;;;;;;;;;;;;;;20.05;53.44;97072.47;5074779;28;19969;-72
2022/07/10 08:54:30;;;;;;;;;;;;;;;20.20;52.78;97059.22;5074811;28;19966;-72
2022/07/10 08:56:57;;;;;;;;;;;;;;;20.38;50.65;97039.22;5074693;28;19963;-71
2022/07/10 08:59:23;;;;;;;;;;;;;;;20.40;51.78;97050.41;5074714;28;19989;-72
2022/07/10 09:02:02;;;;;;;;;;;;;;;20.07;51.26;97052.53;5067394;28;19963;-72
2022/07/10 09:04:28;;;;;;;;;;;;;;;19.70;52.80;97076.66;5074621;28;19984;-72
2022/07/10 09:06:54;;;;;;;;;;;;;;;19.76;53.20;97082.78;5074474;28;19961;-72
2022/07/10 09:09:21;;;;;;;;;;;;;;;19.84;52.71;97085.75;5074595;28;19970;-72
2022/07/10 09:11:47;;;;;;;;;;;;;;;19.83;53.17;97091.34;5073829;28;19968;-72
2022/07/10 09:14:14;;;;;;;;;;;;;;;19.82;53.36;97087.06;5074775;28;19959;-71
2022/07/10 09:16:45;;;;;;;;;;;;;;;19.62;52.60;97080.56;5074525;28;19969;-71
2022/07/10 09:19:24;;;;;;;;;;;;;;;19.71;52.92;97101.41;5074309;28;19959;-71
2022/07/10 09:21:54;;;;;;;;;;;;;;;19.74;52.25;97087.56;5074577;28;19961;-71
2022/07/10 09:24:20;;;;;;;;;;;;;;;19.56;50.57;97083.47;5074125;28;19962;-71
2022/07/10 09:26:55;;;;;;;;;;;;;;;19.50;52.86;97111.13;5074046;28;19969;-72
2022/07/10 09:29:21;;;;;;;;;;;;;;;19.55;53.13;97117.28;5074240;28;19979;-72
2022/07/10 09:31:48;;;;;;;;;;;;;;;19.65;52.87;97113.84;5073978;28;19968;-72
2022/07/10 09:34:14;;;;;;;;;;;;;;;19.73;52.76;97101.94;5074176;28;20327;-72
2022/07/10 09:36:40;;;;;;;;;;;;;;;19.84;49.42;97071.63;5073927;28;19974;-72
2022/07/10 09:39:06;;;;;;;;;;;;;;;19.91;51.02;97082.03;5074288;28;20446;-72
2022/07/10 09:41:32;;;;;;;;;;;;;;;19.93;52.64;97119.81;5074123;28;19961;-72
2022/07/10 09:44:00;;;;;;;;;;;;;;;19.81;51.31;97096.13;5073865;28;19995;-72
2022/07/10 09:46:27;;;;;;;;;;;;;;;19.75;50.94;97086.50;5074012;28;19955;-72
2022/07/10 09:49:08;;;;;;;;;;;;;;;19.67;52.54;97109.06;5074287;28;19968;-72
2022/07/10 09:51:36;;;;;;;;;;;;;;;19.76;51.48;97107.56;5074020;28;19958;-72
2022/07/10 09:54:03;;;;;;;;;;;;;;;19.93;51.44;97106.50;5073789;28;20161;-72
2022/07/10 09:56:52;;;;;;;;;;;;;;;20.00;51.52;97099.91;5073671;28;20434;-72
2022/07/10 09:59:18;;;;;;;;;;;;;;;20.14;50.66;97078.91;5074528;28;19956;-72
2022/07/10 10:01:46;;;;;;;;;;;;;;;20.28;51.64;97088.00;5073657;28;19978;-72
2022/07/10 10:04:12;;;;;;;;;;;;;;;20.37;49.73;97066.13;5074129;28;19954;-72
2022/07/10 10:06:39;;;;;;;;;;;;;;;20.30;47.73;97066.38;5073626;28;19961;-71
2022/07/10 10:09:05;;;;;;;;;;;;;;;20.20;49.75;97088.50;5073835;28;19963;-72
2022/07/10 10:11:32;;;;;;;;;;;;;;;20.02;48.77;97089.00;5073642;28;19967;-72
2022/07/10 10:13:58;;;;;;;;;;;;;;;20.00;49.64;97083.13;5073350;28;19969;-71
2022/07/10 10:16:25;;;;;;;;;;;;;;;20.09;50.30;97078.88;5073588;28;20447;-72
2022/07/10 10:21:36;;;;;;;;;;;;;;;20.45;48.73;97069.09;5058484;28;19961;-72
2022/07/10 10:24:02;;;;;;;;;;;;;;;20.59;48.91;97072.03;5075169;28;19963;-72
2022/07/10 10:26:28;;;;;;;;;;;;;;;20.67;48.02;97057.38;5077540;28;19958;-72
2022/07/10 10:28:56;;;;;;;;;;;;;;;20.72;48.65;97065.38;5077750;28;19985;-72
2022/07/10 10:31:23;;;;;;;;;;;;;;;20.71;48.26;97065.66;5077595;28;19966;-72
2022/07/10 10:33:51;;;;;;;;;;;;;;;20.74;47.37;97067.78;5077269;28;19991;-72
2022/07/10 10:36:44;;;;;;;;;;;;;;;20.94;45.70;97059.75;5077679;28;19958;-72
2022/07/10 10:39:21;;;;;;;;;;;;;;;21.13;45.86;97070.66;5077453;28;19970;-72
2022/07/10 10:41:51;;;;;;;;;;;;;;;21.08;45.42;97075.97;5077905;28;19955;-72
2022/07/10 10:44:17;;;;;;;;;;;;;;;21.06;47.64;97096.78;5077342;28;19964;-72
2022/07/10 10:47:02;;;;;;;;;;;;;;;21.07;45.81;97085.06;5077422;28;19961;-72
2022/07/10 10:49:48;;;;;;;;;;;;;;;21.06;45.13;97075.44;5077016;28;19960;-72
2022/07/10 10:52:15;;;;;;;;;;;;;;;21.14;48.22;97095.44;5077103;28;19957;-72
2022/07/10 10:54:56;;;;;;;;;;;;;;;21.21;45.19;97075.44;5077121;28;19994;-72
2022/07/10 10:57:31;;;;;;;;;;;;;;;21.35;45.58;97072.19;5077026;28;19956;-72
2022/07/10 10:59:59;;;;;;;;;;;;;;;21.49;45.51;97075.91;5077055;28;19965;-72
2022/07/10 11:02:37;;;;;;;;;;;;;;;21.59;44.83;97075.88;5077449;28;19969;-72
2022/07/10 11:05:18;;;;;;;;;;;;;;;21.59;45.81;97085.75;5076963;28;20040;-71
2022/07/10 11:07:53;;;;;;;;;;;;;;;21.44;46.19;97081.25;5077132;28;19987;-72
2022/07/10 11:10:28;;;;;;;;;;;;;;;21.41;46.01;97082.56;5062538;28;19971;-71
2022/07/10 11:12:58;;;;;;;;;;;;;;;21.45;45.43;97093.53;5076810;28;19971;-72
2022/07/10 11:15:24;;;;;;;;;;;;;;;21.57;44.70;97093.25;5076634;28;19981;-72
2022/07/10 11:17:50;;;;;;;;;;;;;;;21.68;43.88;97073.44;5076590;28;19975;-72
2022/07/10 11:20:17;;;;;;;;;;;;;;;21.78;44.06;97085.94;5076643;28;20021;-72
2022/07/10 11:22:42;;;;;;;;;;;;;;;21.91;44.94;97093.34;5076701;28;19973;-72
2022/07/10 11:25:19;;;;;;;;;;;;;;;21.92;44.13;97076.22;5076689;28;19964;-72
2022/07/10 11:27:54;;;;;;;;;;;;;;;21.76;44.22;97080.06;5076861;28;19963;-72
2022/07/10 11:30:20;;;;;;;;;;;;;;;21.72;43.36;97087.84;5075179;28;19983;-72
2022/07/10 11:32:46;;;;;;;;;;;;;;;21.70;43.21;97087.31;5076197;28;20072;-72
2022/07/10 11:35:12;;;;;;;;;;;;;;;21.69;43.35;97075.00;5076235;28;20340;-72
2022/07/10 11:37:51;;;;;;;;;;;;;;;21.67;41.74;97074.50;5076516;28;19995;-72
2022/07/10 11:40:19;;;;;;;;;;;;;;;21.78;43.08;97084.06;5076327;28;19973;-72
2022/07/10 11:42:55;;;;;;;;;;;;;;;21.91;43.89;97096.03;5076294;28;19967;-72
2022/07/10 11:45:23;;;;;;;;;;;;;;;22.00;43.28;97081.00;5076046;28;20321;-72
2022/07/10 11:47:49;;;;;;;;;;;;;;;22.08;42.01;97076.97;5076233;28;19952;-72
2022/07/10 11:50:15;;;;;;;;;;;;;;;22.13;43.04;97084.94;5075968;28;20051;-72
2022/07/10 11:52:41;;;;;;;;;;;;;;;22.05;40.21;97072.97;5076080;28;19975;-72
2022/07/10 11:55:13;;;;;;;;;;;;;;;22.23;40.86;97076.88;5075872;28;19979;-72
2022/07/10 11:57:41;;;;;;;;;;;;;;;22.34;42.19;97082.97;5075819;28;19969;-72
2022/07/10 12:00:07;;;;;;;;;;;;;;;22.50;42.05;97078.31;5075937;28;19960;-72
2022/07/10 12:02:33;;;;;;;;;;;;;;;22.63;41.70;97082.22;5075826;28;19962;-72
2022/07/10 12:04:59;;;;;;;;;;;;;;;22.72;42.54;97079.72;5076080;28;20373;-72
2022/07/10 12:07:25;;;;;;;;;;;;;;;22.61;39.37;97052.28;5075973;28;20315;-72
2022/07/10 12:09:54;;;;;;;;;;;;;;;22.58;38.75;97042.16;5075648;28;20404;-72
2022/07/10 12:12:22;;;;;;;;;;;;;;;22.62;40.88;97068.06;5075509;28;19958;-72
2022/07/10 12:14:47;;;;;;;;;;;;;;;22.71;40.09;97076.28;5075637;28;19958;-72
2022/07/10 12:17:13;;;;;;;;;;;;;;;22.88;40.97;97073.97;5075404;28;19973;-72
2022/07/10 12:19:39;;;;;;;;;;;;;;;22.93;38.30;97053.59;5075699;28;19962;-72
2022/07/10 12:22:06;;;;;;;;;;;;;;;22.94;39.60;97058.69;5075570;28;19971;-72
2022/07/10 12:24:32;;;;;;;;;;;;;;;22.97;39.15;97057.31;5075638;28;19956;-72
2022/07/10 12:26:58;;;;;;;;;;;;;;;23.05;38.72;97051.38;5075238;28;19970;-72
2022/07/10 12:29:25;;;;;;;;;;;;;;;22.98;38.94;97069.63;5075220;28;20370;-72
2022/07/10 12:31:52;;;;;;;;;;;;;;;22.92;39.14;97060.84;5075229;28;19969;-73
2022/07/10 12:34:18;;;;;;;;;;;;;;;22.89;40.28;97064.09;5075419;28;19971;-72
2022/07/10 12:36:45;;;;;;;;;;;;;;;22.95;40.29;97071.00;5075185;28;19967;-72
2022/07/10 12:39:12;;;;;;;;;;;;;;;23.03;38.16;97054.31;5075086;28;19960;-72
2022/07/10 12:41:57;;;;;;;;;;;;;;;23.09;39.88;97066.56;5073374;28;20433;-72
2022/07/10 12:44:29;;;;;;;;;;;;;;;23.08;39.34;97074.91;5075304;28;19955;-72
2022/07/10 12:47:09;;;;;;;;;;;;;;;23.04;39.00;97066.63;5074186;28;19961;-71
2022/07/10 12:49:47;;;;;;;;;;;;;;;22.97;39.07;97060.78;5074780;28;19958;-72
2022/07/10 12:52:20;;;;;;;;;;;;;;;22.79;37.41;97059.63;5075330;28;20332;-72
2022/07/10 12:54:46;;;;;;;;;;;;;;;22.85;38.46;97073.75;5073548;28;19974;-72
2022/07/10 12:57:12;;;;;;;;;;;;;;;22.97;39.07;97074.16;5074806;28;20396;-72
2022/07/10 12:59:38;;;;;;;;;;;;;;;23.12;39.63;97072.44;5074860;28;20342;-72